Time;durP1;ratioP1;P1;durP2;ratioP2;P2;SDS_P1;SDS_P2;PMS_P1;PMS_P2;Temp;Humidity;BMP_temperature;BMP_pressure;BME280_temperature;BME280_humidity;BME280_pressure;Samples;Min_cycle;Max_cycle;Signal;HPM_P1;HPM_P2
2021/01/09 00:01:58;;;;;;;12.82;12.00;;;;;;;4.78;64.92;102194.22;5068272;28;20036;-86
2021/01/09 00:04:23;;;;;;;9.20;8.48;;;;;;;4.79;64.93;102182.44;5067489;28;20040;-85
2021/01/09 00:06:50;;;;;;;10.65;9.77;;;;;;;4.84;65.52;102188.31;5084811;28;20051;-86
2021/01/09 00:09:15;;;;;;;9.00;8.38;;;;;;;4.89;65.07;102193.34;5051305;28;20028;-87
2021/01/09 00:11:41;;;;;;;7.28;5.80;;;;;;;4.88;64.98;102183.53;5085000;28;20519;-85
2021/01/09 00:14:06;;;;;;;12.23;11.27;;;;;;;4.94;64.92;102218.94;5050482;28;20501;-86
2021/01/09 00:16:32;;;;;;;9.27;8.57;;;;;;;4.92;64.75;102217.34;5051609;28;20035;-85
2021/01/09 00:18:57;;;;;;;13.85;12.95;;;;;;;4.84;64.94;102215.25;5083774;28;20028;-85
2021/01/09 00:21:22;;;;;;;11.43;10.77;;;;;;;4.81;64.48;102215.50;5084695;28;20042;-85
2021/01/09 00:23:48;;;;;;;13.57;12.80;;;;;;;4.71;64.87;102206.44;5051779;28;20032;-86
2021/01/09 00:26:13;;;;;;;9.32;8.73;;;;;;;4.70;65.02;102204.75;5065689;28;20032;-85
2021/01/09 00:28:39;;;;;;;11.77;10.95;;;;;;;4.68;65.14;102194.09;5051708;28;20398;-85
2021/01/09 00:31:07;;;;;;;13.90;13.00;;;;;;;4.80;65.10;102213.78;5068969;28;20407;-85
2021/01/09 00:33:33;;;;;;;12.25;11.45;;;;;;;4.76;65.09;102207.81;5087122;28;20032;-85
2021/01/09 00:35:59;;;;;;;9.45;8.75;;;;;;;4.74;64.85;102206.19;5070076;28;20032;-85
2021/01/09 00:38:25;;;;;;;8.85;8.30;;;;;;;4.69;65.00;102200.34;5086388;28;20781;-86
2021/01/09 00:40:50;;;;;;;7.93;7.50;;;;;;;4.79;64.95;102212.09;5068651;28;20189;-86
2021/01/09 00:43:16;;;;;;;9.48;8.88;;;;;;;4.73;64.80;102216.13;5086348;28;20085;-85
2021/01/09 00:45:42;;;;;;;13.40;12.50;;;;;;;4.49;64.67;102183.94;5088553;28;20044;-85
2021/01/09 00:48:07;;;;;;;10.25;9.55;;;;;;;4.53;64.79;102209.66;5084614;28;20106;-85
2021/01/09 00:50:36;;;;;;;13.77;12.88;;;;;;;4.59;64.86;102219.09;5086588;28;20418;-85
2021/01/09 00:53:06;;;;;;;11.30;10.63;;;;;;;4.36;64.82;102192.16;5069318;28;20024;-84
2021/01/09 00:55:35;;;;;;;11.07;10.55;;;;;;;4.45;64.63;102218.34;5074913;28;20180;-85
2021/01/09 00:58:09;;;;;;;14.15;13.25;;;;;;;4.45;64.60;102222.88;5086997;28;20039;-83
2021/01/09 01:00:38;;;;;;;16.35;15.35;;;;;;;4.30;64.77;102198.03;5085685;28;20039;-84
2021/01/09 01:03:04;;;;;;;8.25;7.75;;;;;;;4.31;64.83;102210.53;5086435;28;20036;-84
2021/01/09 01:05:32;;;;;;;8.25;7.82;;;;;;;4.30;64.72;102228.50;5102265;28;20036;-82
2021/01/09 01:08:02;;;;;;;6.95;6.55;;;;;;;4.40;64.50;102238.53;5066609;28;20390;-85
2021/01/09 01:10:48;;;;;;;10.90;10.27;;;;;;;4.40;64.57;102235.84;5067277;28;20100;-84
2021/01/09 01:13:14;;;;;;;11.70;10.98;;;;;;;4.31;64.51;102234.75;5086557;28;20444;-82
2021/01/09 01:15:40;;;;;;;10.27;9.50;;;;;;;4.34;64.66;102242.59;5087635;28;20028;-82
2021/01/09 01:18:05;;;;;;;15.18;13.98;;;;;;;4.33;64.70;102242.72;5088550;28;20084;-83
2021/01/09 01:20:31;;;;;;;14.13;12.95;;;;;;;4.26;64.73;102232.44;5083342;28;20024;-82
2021/01/09 01:22:56;;;;;;;20.63;19.08;;;;;;;4.23;64.71;102235.34;5086961;28;20098;-84
2021/01/09 01:25:22;;;;;;;22.20;20.70;;;;;;;4.25;64.60;102246.84;5069597;28;20032;-83
2021/01/09 01:28:12;;;;;;;14.77;13.48;;;;;;;4.15;64.57;102223.47;5069014;28;20090;-83
2021/01/09 01:30:38;;;;;;;15.27;14.25;;;;;;;4.21;64.48;102250.75;5070199;28;20045;-82
2021/01/09 01:33:03;;;;;;;16.92;15.80;;;;;;;4.23;64.44;102254.22;5085579;28;20043;-83
2021/01/09 01:35:31;;;;;;;19.08;17.92;;;;;;;4.06;64.29;102243.88;5089243;28;20570;-83
2021/01/09 01:37:56;;;;;;;15.10;14.20;;;;;;;4.15;64.46;102243.16;5085071;28;20470;-83
2021/01/09 01:40:26;;;;;;;15.90;14.85;;;;;;;4.06;64.28;102239.38;5084908;28;20074;-82
2021/01/09 01:42:53;;;;;;;12.75;11.73;;;;;;;4.17;64.45;102260.06;5085095;28;20534;-83
2021/01/09 01:45:18;;;;;;;10.65;9.90;;;;;;;4.09;64.63;102249.03;5087537;28;20111;-82
2021/01/09 01:47:44;;;;;;;9.02;8.40;;;;;;;4.13;64.58;102256.75;5084391;28;20036;-81
2021/01/09 01:50:19;;;;;;;11.30;10.50;;;;;;;4.16;64.40;102269.13;5085224;28;20115;-82
2021/01/09 01:52:47;;;;;;;10.63;9.82;;;;;;;3.99;64.27;102256.09;5083861;28;20036;-82
2021/01/09 01:55:12;;;;;;;12.30;11.43;;;;;;;4.05;64.37;102279.88;5084383;28;20043;-82
2021/01/09 01:57:38;;;;;;;12.27;11.52;;;;;;;4.03;64.37;102271.91;5083835;28;20028;-82
2021/01/09 02:00:05;;;;;;;15.77;14.88;;;;;;;4.06;64.51;102273.47;5084783;28;20032;-82
2021/01/09 02:02:30;;;;;;;7.82;7.38;;;;;;;4.07;64.09;102276.06;5083783;28;20036;-81
2021/01/09 02:05:01;;;;;;;9.35;8.85;;;;;;;4.06;64.40;102278.88;5085523;28;20661;-82
2021/01/09 02:07:33;;;;;;;8.32;7.70;;;;;;;3.97;64.38;102263.41;5085022;28;20118;-81
2021/01/09 02:10:02;;;;;;;9.45;8.93;;;;;;;4.01;64.14;102268.44;5086661;28;20078;-81
2021/01/09 02:12:44;;;;;;;16.50;15.55;;;;;;;4.03;64.42;102277.28;5085927;28;20111;-81
2021/01/09 02:15:11;;;;;;;11.68;11.00;;;;;;;4.02;64.33;102280.09;5086836;28;20398;-81
2021/01/09 02:17:37;;;;;;;11.90;11.10;;;;;;;3.99;64.34;102286.56;5085003;28;20102;-81
2021/01/09 02:20:03;;;;;;;7.35;6.85;;;;;;;3.95;64.52;102277.00;5087420;28;20477;-81
2021/01/09 02:22:32;;;;;;;13.88;12.93;;;;;;;3.97;64.35;102277.75;5086479;28;20074;-81
2021/01/09 02:24:58;;;;;;;11.57;10.88;;;;;;;3.93;64.26;102271.72;5085146;28;20034;-81
2021/01/09 02:27:23;;;;;;;13.98;13.07;;;;;;;3.99;64.55;102285.72;5083532;28;20031;-81
2021/01/09 02:30:01;;;;;;;12.32;11.63;;;;;;;3.99;64.58;102281.19;5084246;28;20044;-81
2021/01/09 02:32:46;;;;;;;8.38;7.82;;;;;;;4.02;64.85;102285.47;5082574;28;20036;-81
2021/01/09 02:35:15;;;;;;;8.98;8.48;;;;;;;4.03;64.55;102284.47;5082974;28;20525;-81
2021/01/09 02:37:42;;;;;;;13.27;12.57;;;;;;;3.98;64.57;102276.75;5084412;28;20067;-82
2021/01/09 02:40:09;;;;;;;14.65;13.75;;;;;;;4.02;64.30;102289.03;5084804;28;20040;-82
2021/01/09 02:42:34;;;;;;;12.43;11.48;;;;;;;3.97;64.48;102283.16;5086553;28;20039;-82
2021/01/09 02:45:01;;;;;;;6.03;5.72;;;;;;;3.97;64.47;102290.34;5085077;28;20398;-82
2021/01/09 02:47:27;;;;;;;12.18;11.38;;;;;;;3.90;64.68;102268.44;5086994;28;20032;-81
2021/01/09 02:49:52;;;;;;;9.30;8.75;;;;;;;4.01;64.71;102286.44;5084476;28;20027;-82
2021/01/09 02:52:18;;;;;;;14.52;13.65;;;;;;;3.94;64.40;102294.13;5086422;28;20571;-82
2021/01/09 02:54:43;;;;;;;10.98;10.35;;;;;;;3.85;64.35;102298.38;5082527;28;20137;-82
2021/01/09 02:57:08;;;;;;;16.80;15.85;;;;;;;3.80;64.47;102288.94;5088150;28;20028;-82
2021/01/09 02:59:34;;;;;;;14.45;13.57;;;;;;;3.76;64.53;102291.84;5090382;28;20073;-82
2021/01/09 03:01:59;;;;;;;14.82;13.80;;;;;;;3.78;64.81;102289.03;5087946;28;20032;-83
2021/01/09 03:04:25;;;;;;;23.00;21.60;;;;;;;3.75;64.70;102287.47;5090862;28;20020;-83
2021/01/09 03:06:50;;;;;;;14.57;13.77;;;;;;;3.73;64.59;102293.94;5071679;28;20036;-82
2021/01/09 03:09:15;;;;;;;14.45;13.35;;;;;;;3.64;64.53;102286.53;5087805;28;20032;-83
2021/01/09 03:11:41;;;;;;;20.35;19.15;;;;;;;3.63;64.50;102292.88;5087596;28;20028;-82
2021/01/09 03:14:06;;;;;;;16.27;15.13;;;;;;;3.58;64.71;102296.81;5091485;28;20031;-82
2021/01/09 03:16:32;;;;;;;26.92;25.30;;;;;;;3.52;64.60;102283.81;5087278;28;20039;-83
2021/01/09 03:18:57;;;;;;;20.20;19.00;;;;;;;3.56;64.63;102293.34;5088081;28;20024;-82
2021/01/09 03:21:22;;;;;;;16.75;15.75;;;;;;;3.59;64.55;102293.13;5086690;28;20043;-83
2021/01/09 03:23:48;;;;;;;14.13;13.38;;;;;;;3.56;64.63;102292.50;5089705;28;20036;-82
2021/01/09 03:26:13;;;;;;;11.25;10.25;;;;;;;3.44;64.50;102286.19;5086438;28;20032;-83
2021/01/09 03:28:39;;;;;;;8.93;8.32;;;;;;;3.47;64.84;102293.19;5085363;28;20051;-83
2021/01/09 03:31:04;;;;;;;13.43;12.52;;;;;;;3.46;64.89;102296.84;5087439;28;20032;-84
2021/01/09 03:33:30;;;;;;;14.68;13.90;;;;;;;3.34;64.60;102283.34;5087431;28;20031;-83
2021/01/09 03:35:56;;;;;;;17.10;16.02;;;;;;;3.31;64.70;102288.94;5089157;28;20048;-84
2021/01/09 03:38:21;;;;;;;22.05;20.65;;;;;;;3.38;64.75;102298.28;5088504;28;20024;-83
2021/01/09 03:40:47;;;;;;;16.90;15.80;;;;;;;3.37;64.67;102288.47;5088168;28;20048;-83
2021/01/09 03:43:12;;;;;;;14.82;14.13;;;;;;;3.35;64.91;102300.31;5087913;28;20047;-83
2021/01/09 03:45:38;;;;;;;15.68;14.65;;;;;;;3.34;64.57;102301.31;5083386;28;20063;-83
2021/01/09 03:48:03;;;;;;;16.27;15.32;;;;;;;3.22;64.58;102293.16;5083708;28;20035;-84
2021/01/09 03:50:29;;;;;;;18.50;17.27;;;;;;;3.18;64.70;102278.25;5089385;28;20036;-84
2021/01/09 03:52:54;;;;;;;17.75;16.55;;;;;;;3.35;64.84;102300.31;5087391;28;20044;-84
2021/01/09 03:55:19;;;;;;;8.98;8.48;;;;;;;3.28;64.69;102283.78;5086116;28;20024;-84
2021/01/09 03:57:45;;;;;;;14.57;13.30;;;;;;;3.33;64.68;102291.50;5071373;28;20129;-84
2021/01/09 04:00:11;;;;;;;12.00;11.30;;;;;;;3.38;64.74;102300.09;5069057;28;20031;-84
2021/01/09 04:02:36;;;;;;;13.45;12.50;;;;;;;3.35;64.59;102297.63;5088641;28;20062;-85
2021/01/09 04:05:02;;;;;;;9.55;8.90;;;;;;;3.28;64.38;102299.91;5087712;28;20433;-85
2021/01/09 04:07:27;;;;;;;13.60;12.80;;;;;;;3.19;64.54;102296.06;5089986;28;20066;-85
2021/01/09 04:09:52;;;;;;;9.38;8.85;;;;;;;3.17;64.72;102298.00;5086077;28;20028;-86
2021/01/09 04:12:18;;;;;;;10.45;9.85;;;;;;;3.17;64.84;102299.84;5086164;28;20054;-86
2021/01/09 04:14:43;;;;;;;9.00;8.27;;;;;;;3.14;64.69;102303.63;5063324;28;20086;-87
2021/01/09 04:17:10;;;;;;;8.90;8.40;;;;;;;3.15;64.72;102293.72;5085639;28;20496;-86
2021/01/09 04:19:35;;;;;;;24.98;23.38;;;;;;;3.19;64.71;102306.81;5088754;28;20109;-87
2021/01/09 04:22:00;;;;;;;13.10;12.07;;;;;;;3.15;64.68;102291.91;5085206;28;20453;-86
2021/01/09 04:24:26;;;;;;;20.67;19.15;;;;;;;3.23;64.61;102304.78;5073919;28;20020;-86
2021/01/09 04:26:56;;;;;;;16.88;15.82;;;;;;;3.19;64.54;102304.13;5087427;28;20032;-86
2021/01/09 04:29:22;;;;;;;20.27;18.90;;;;;;;3.17;65.14;102302.53;5088904;28;20016;-86
2021/01/09 04:31:48;;;;;;;14.10;13.02;;;;;;;3.15;64.86;102315.22;5088720;28;20040;-86
2021/01/09 04:34:14;;;;;;;15.80;14.65;;;;;;;3.12;64.70;102315.44;5087380;28;20039;-85
2021/01/09 04:36:40;;;;;;;12.05;11.13;;;;;;;3.10;64.57;102322.75;5086904;28;20043;-85
2021/01/09 04:39:05;;;;;;;16.25;15.25;;;;;;;3.01;64.47;102318.91;5086079;28;20232;-84
2021/01/09 04:41:34;;;;;;;13.90;12.80;;;;;;;2.90;64.54;102310.75;5067090;28;20052;-84
2021/01/09 04:44:00;;;;;;;11.05;10.15;;;;;;;2.99;64.71;102326.22;5086707;28;20031;-84
2021/01/09 04:46:26;;;;;;;18.90;17.75;;;;;;;2.97;64.86;102326.31;5088023;28;20058;-84
2021/01/09 04:48:52;;;;;;;13.70;12.73;;;;;;;2.85;64.84;102309.25;5087561;28;20473;-85
2021/01/09 04:51:18;;;;;;;11.82;11.00;;;;;;;2.91;64.56;102332.13;5087614;28;20042;-84
2021/01/09 04:53:44;;;;;;;9.52;8.93;;;;;;;2.95;64.82;102335.47;5085100;28;20058;-85
2021/01/09 04:56:11;;;;;;;13.63;12.73;;;;;;;2.88;64.57;102328.81;5087425;28;20031;-85
2021/01/09 04:58:38;;;;;;;12.50;11.40;;;;;;;2.83;64.50;102331.84;5087501;28;20354;-85
2021/01/09 05:01:04;;;;;;;15.38;14.32;;;;;;;2.81;64.63;102328.38;5088672;28;20036;-85
2021/01/09 05:03:29;;;;;;;14.82;13.98;;;;;;;2.87;64.82;102333.31;5087427;28;20047;-85
2021/01/09 05:05:55;;;;;;;15.88;14.88;;;;;;;2.90;64.78;102334.94;5088062;28;20482;-85
2021/01/09 05:08:20;;;;;;;16.70;15.70;;;;;;;2.93;64.78;102323.97;5086166;28;20478;-86
2021/01/09 05:10:46;;;;;;;12.43;11.35;;;;;;;2.98;64.82;102332.56;5086474;28;20039;-85
2021/01/09 05:13:12;;;;;;;16.58;15.15;;;;;;;2.95;64.67;102336.34;5087039;28;20106;-85
2021/01/09 05:15:39;;;;;;;16.88;15.65;;;;;;;3.03;64.90;102339.31;5087222;28;20437;-85
2021/01/09 05:18:05;;;;;;;12.93;11.93;;;;;;;2.99;64.70;102329.75;5080978;28;20085;-85
2021/01/09 05:20:32;;;;;;;16.35;15.30;;;;;;;3.01;64.89;102330.53;5085652;28;20813;-85
2021/01/09 05:22:59;;;;;;;14.85;13.48;;;;;;;2.96;64.82;102334.50;5088226;28;20031;-85
2021/01/09 05:25:26;;;;;;;9.25;8.73;;;;;;;3.02;64.61;102336.75;5085174;28;20032;-86
2021/01/09 05:27:54;;;;;;;15.68;14.23;;;;;;;3.00;64.66;102336.00;5074021;28;20111;-85
2021/01/09 05:30:20;;;;;;;13.68;12.57;;;;;;;2.99;64.57;102342.34;5087564;28;20038;-85
2021/01/09 05:32:45;;;;;;;20.15;18.45;;;;;;;3.00;64.46;102352.97;5085943;28;20040;-85
2021/01/09 05:35:15;;;;;;;12.57;11.77;;;;;;;2.99;64.52;102350.41;5087152;28;20440;-85
2021/01/09 05:37:40;;;;;;;17.85;16.60;;;;;;;3.03;64.71;102349.22;5084762;28;20093;-84
2021/01/09 05:40:07;;;;;;;20.80;19.58;;;;;;;3.05;64.58;102358.03;5087423;28;20056;-84
2021/01/09 05:42:34;;;;;;;20.05;18.83;;;;;;;2.99;64.57;102356.63;5087579;28;20032;-85
2021/01/09 05:45:00;;;;;;;11.82;11.13;;;;;;;2.99;64.64;102353.94;5087806;28;20024;-85
2021/01/09 05:47:27;;;;;;;19.15;17.95;;;;;;;3.04;64.66;102359.88;5082513;28;20050;-85
2021/01/09 05:49:58;;;;;;;28.17;26.55;;;;;;;3.03;64.55;102362.66;5087918;28;20432;-84
2021/01/09 05:52:25;;;;;;;25.45;23.67;;;;;;;2.97;64.63;102353.19;5086349;28;20088;-86
2021/01/09 05:54:55;;;;;;;33.53;31.30;;;;;;;3.07;64.65;102363.28;5084865;28;20039;-85
2021/01/09 05:57:27;;;;;;;27.10;24.85;;;;;;;3.05;64.71;102355.34;5086436;28;20055;-85
2021/01/09 05:59:56;;;;;;;22.50;20.98;;;;;;;3.17;64.76;102359.00;5085644;28;20043;-86
2021/01/09 06:02:23;;;;;;;24.02;22.25;;;;;;;3.28;64.71;102363.59;5086111;28;20751;-84
2021/01/09 06:04:54;;;;;;;19.50;18.17;;;;;;;3.43;64.59;102372.34;5085385;28;20125;-84
2021/01/09 06:07:24;;;;;;;21.77;20.27;;;;;;;3.49;64.50;102366.53;5083655;28;20055;-84
2021/01/09 06:09:57;;;;;;;15.48;14.48;;;;;;;3.48;64.56;102370.22;5086048;28;20092;-84
2021/01/09 06:12:25;;;;;;;28.65;26.40;;;;;;;3.47;64.62;102369.34;5086051;28;20063;-87
2021/01/09 06:14:53;;;;;;;22.63;20.98;;;;;;;3.47;64.81;102371.19;5087080;28;20028;-87
2021/01/09 06:17:21;;;;;;;25.85;24.30;;;;;;;3.45;64.48;102375.81;5084797;28;20039;-87
2021/01/09 06:19:47;;;;;;;17.65;16.40;;;;;;;3.42;64.58;102376.03;5085617;28;20039;-86
2021/01/09 06:22:13;;;;;;;11.82;10.88;;;;;;;3.35;64.69;102371.09;5082045;28;20044;-86
2021/01/09 06:24:40;;;;;;;26.65;24.80;;;;;;;3.31;64.47;102374.13;5085641;28;20926;-88
2021/01/09 06:27:09;;;;;;;26.58;24.77;;;;;;;3.28;64.67;102369.81;5086657;28;20091;-89
2021/01/09 06:29:39;;;;;;;19.92;18.15;;;;;;;3.25;64.61;102364.66;5085458;28;20375;-86
2021/01/09 06:32:08;;;;;;;21.08;19.75;;;;;;;3.31;64.77;102374.97;5084186;28;20066;-87
2021/01/09 06:34:38;;;;;;;20.60;19.17;;;;;;;3.24;64.65;102371.00;5085326;28;20077;-86
2021/01/09 06:37:04;;;;;;;32.80;30.70;;;;;;;3.28;64.60;102372.50;5084163;28;20028;-87
2021/01/09 06:39:34;;;;;;;18.63;17.33;;;;;;;3.28;64.58;102377.03;5086477;28;20501;-87
2021/01/09 06:42:03;;;;;;;19.77;18.52;;;;;;;3.29;64.51;102376.94;5085082;28;20142;-86
2021/01/09 06:44:29;;;;;;;17.45;16.33;;;;;;;3.27;64.67;102383.38;5101051;28;20540;-87
2021/01/09 06:46:55;;;;;;;19.30;16.92;;;;;;;3.21;64.60;102381.97;5085048;28;20060;-87
2021/01/09 06:49:25;;;;;;;34.20;31.77;;;;;;;3.21;64.55;102379.28;5068504;28;20067;-87
2021/01/09 06:51:57;;;;;;;24.02;22.17;;;;;;;3.28;64.52;102394.03;5084688;28;20039;-86
2021/01/09 06:54:27;;;;;;;17.20;15.80;;;;;;;3.20;64.65;102389.19;5085473;28;20648;-87
2021/01/09 06:57:02;;;;;;;38.77;35.87;;;;;;;3.27;64.40;102391.44;5083608;28;20101;-86
2021/01/09 06:59:32;;;;;;;24.10;22.30;;;;;;;3.25;64.61;102393.38;5086705;28;20398;-87
2021/01/09 07:02:11;;;;;;;17.17;15.88;;;;;;;3.27;64.25;102400.34;5083562;28;20104;-87
2021/01/09 07:04:50;;;;;;;23.10;21.15;;;;;;;3.38;65.25;102404.97;5086738;28;20040;-87
2021/01/09 07:07:36;;;;;;;20.95;19.33;;;;;;;3.44;65.81;102407.19;5081753;28;20024;-87
2021/01/09 07:10:13;;;;;;;23.98;21.83;;;;;;;3.55;65.28;102401.03;5081534;28;20027;-87
2021/01/09 07:12:41;;;;;;;35.83;33.53;;;;;;;3.66;65.78;102395.75;5085386;28;20036;-87
2021/01/09 07:15:08;;;;;;;27.58;25.30;;;;;;;3.85;65.25;102391.72;5084743;28;20020;-87
2021/01/09 07:17:39;;;;;;;18.35;16.83;;;;;;;3.92;65.12;102391.16;5083798;28;20046;-87
2021/01/09 07:20:09;;;;;;;22.00;20.40;;;;;;;3.94;65.34;102393.72;5086671;28;20039;-87
2021/01/09 07:22:39;;;;;;;12.13;11.05;;;;;;;3.98;64.99;102399.72;5084815;28;20071;-89
2021/01/09 07:25:07;;;;;;;18.90;17.00;;;;;;;3.99;65.05;102409.53;5086551;28;20385;-85
2021/01/09 07:27:44;;;;;;;18.23;16.83;;;;;;;3.97;64.73;102406.06;5085684;28;20032;-89
2021/01/09 07:30:15;;;;;;;20.63;19.23;;;;;;;3.91;64.42;102408.25;5086653;28;20028;-89
2021/01/09 07:32:53;;;;;;;19.83;18.10;;;;;;;3.97;65.00;102411.47;5084389;28;20040;-88
2021/01/09 07:35:30;;;;;;;15.82;14.35;;;;;;;3.97;64.71;102420.41;5066529;28;20639;-88
2021/01/09 07:37:57;;;;;;;13.13;11.98;;;;;;;3.91;64.48;102416.34;5085019;28;20062;-89
2021/01/09 07:40:24;;;;;;;15.00;13.90;;;;;;;3.96;64.48;102423.22;5085902;28;20123;-88
2021/01/09 07:42:51;;;;;;;15.15;13.60;;;;;;;3.93;64.32;102429.69;5086845;28;20389;-87
2021/01/09 07:45:20;;;;;;;13.32;11.95;;;;;;;3.80;64.48;102408.19;5086940;28;20743;-88
2021/01/09 07:47:48;;;;;;;13.77;12.57;;;;;;;3.88;64.33;102419.25;5089481;28;20089;-88
2021/01/09 07:50:16;;;;;;;10.38;9.52;;;;;;;3.93;64.54;102435.06;5089383;28;20036;-88
2021/01/09 07:52:42;;;;;;;14.60;13.43;;;;;;;3.90;64.41;102425.38;5086239;28;20039;-88
2021/01/09 07:55:09;;;;;;;11.32;9.98;;;;;;;3.86;64.32;102423.91;5085425;28;20023;-89
2021/01/09 07:57:38;;;;;;;16.70;15.57;;;;;;;3.88;64.34;102421.94;5104459;28;20036;-89
2021/01/09 08:00:09;;;;;;;13.35;12.13;;;;;;;3.83;64.97;102415.16;5071615;28;20044;-89
2021/01/09 08:02:42;;;;;;;12.77;11.60;;;;;;;4.06;64.33;102432.31;5088582;28;20047;-89
2021/01/09 08:05:20;;;;;;;9.80;9.10;;;;;;;3.92;64.41;102426.13;5087760;28;20119;-87
2021/01/09 08:07:46;;;;;;;7.35;6.80;;;;;;;4.02;64.25;102439.75;5087691;28;20040;-88
2021/01/09 08:10:31;;;;;;;15.88;11.98;;;;;;;3.99;64.51;102440.00;5087081;28;20111;-87
2021/01/09 08:13:00;;;;;;;11.90;10.45;;;;;;;4.02;64.30;102450.53;5101903;28;20043;-87
2021/01/09 08:15:27;;;;;;;11.85;7.22;;;;;;;4.03;64.33;102454.06;5086977;28;20085;-88
2021/01/09 08:17:54;;;;;;;8.38;5.53;;;;;;;4.04;64.25;102448.56;5087636;28;20036;-87
2021/01/09 08:20:20;;;;;;;12.63;8.82;;;;;;;4.15;64.54;102452.31;5087701;28;20093;-86
2021/01/09 08:22:59;;;;;;;10.32;9.27;;;;;;;4.22;64.16;102450.88;5087529;28;20035;-88
2021/01/09 08:25:30;;;;;;;10.48;9.55;;;;;;;4.36;64.71;102452.53;5088301;28;20470;-88
2021/01/09 08:28:01;;;;;;;9.30;7.97;;;;;;;4.50;64.44;102448.81;5088975;28;20024;-87
2021/01/09 08:30:29;;;;;;;8.57;7.75;;;;;;;4.59;64.35;102454.34;5088327;28;20028;-87
2021/01/09 08:33:08;;;;;;;13.27;9.95;;;;;;;4.76;64.45;102449.50;5086806;28;20111;-89
2021/01/09 08:45:49;;;;;;;12.35;11.35;;;;;;;5.02;64.16;102469.91;5078038;28;20059;-86
2021/01/09 08:48:22;;;;;;;11.95;10.75;;;;;;;5.02;64.04;102469.91;5087765;28;20032;-85
2021/01/09 08:51:10;;;;;;;12.23;11.13;;;;;;;5.05;64.24;102465.25;5084393;28;20040;-87
2021/01/09 08:53:43;;;;;;;14.63;9.93;;;;;;;5.14;64.18;102470.78;5087721;28;20124;-87
2021/01/09 08:56:09;;;;;;;12.27;8.25;;;;;;;5.62;64.73;102472.38;5086216;28;20020;-86
2021/01/09 08:58:37;;;;;;;10.32;8.20;;;;;;;7.30;64.34;102479.16;5080769;28;20375;-87
2021/01/09 09:01:05;;;;;;;12.80;6.68;;;;;;;9.03;62.99;102479.78;5087794;28;20615;-86
2021/01/09 09:03:33;;;;;;;12.75;7.90;;;;;;;10.39;61.07;102478.31;5085184;28;20040;-88
2021/01/09 09:06:05;;;;;;;9.25;4.72;;;;;;;11.43;57.64;102491.22;5072341;28;20432;-89
2021/01/09 09:08:34;;;;;;;6.55;4.28;;;;;;;10.85;56.77;102483.66;5090970;28;20028;-88
2021/01/09 09:11:00;;;;;;;5.10;4.60;;;;;;;9.92;57.83;102502.94;5072191;28;20387;-87
2021/01/09 09:13:26;;;;;;;3.97;3.72;;;;;;;9.13;58.53;102502.34;5071175;28;20572;-88
2021/01/09 09:15:52;;;;;;;5.78;4.53;;;;;;;8.49;58.91;102499.22;5069324;28;20063;-89
2021/01/09 09:18:19;;;;;;;8.23;5.28;;;;;;;8.09;58.72;102505.53;5087460;28;20028;-87
2021/01/09 09:20:51;;;;;;;6.20;4.75;;;;;;;7.84;59.08;102502.31;5086384;28;20036;-87
2021/01/09 09:23:26;;;;;;;5.13;3.85;;;;;;;7.67;59.50;102500.28;5083554;28;20043;-87
2021/01/09 09:26:10;;;;;;;7.13;5.63;;;;;;;7.55;60.03;102494.09;5071073;28;20027;-87
2021/01/09 09:28:49;;;;;;;7.55;5.10;;;;;;;7.48;60.48;102504.59;5086391;28;20115;-87
2021/01/09 09:31:29;;;;;;;9.63;8.57;;;;;;;7.51;60.49;102507.03;5086381;28;20059;-86
2021/01/09 09:33:55;;;;;;;11.48;8.95;;;;;;;7.79;60.97;102507.31;5068654;28;20032;-86
2021/01/09 09:36:20;;;;;;;7.40;6.63;;;;;;;7.95;60.07;102505.94;5087936;28;20024;-87
2021/01/09 09:38:46;;;;;;;7.55;6.28;;;;;;;8.01;59.82;102508.94;5086797;28;20078;-86
2021/01/09 09:41:11;;;;;;;17.00;12.63;;;;;;;8.14;59.65;102507.81;5086346;28;20527;-86
2021/01/09 09:43:37;;;;;;;14.30;11.95;;;;;;;8.41;59.12;102510.72;5068778;28;20040;-87
2021/01/09 09:46:05;;;;;;;10.27;5.63;;;;;;;8.47;58.56;102508.50;5086456;28;20414;-87
2021/01/09 09:48:33;;;;;;;10.10;7.90;;;;;;;8.64;58.66;102517.78;5084948;28;20035;-86
2021/01/09 09:51:02;;;;;;;11.07;7.32;;;;;;;8.80;58.71;102515.34;5085746;28;20027;-86
2021/01/09 09:53:27;;;;;;;9.15;8.25;;;;;;;9.08;58.22;102515.47;5082878;28;20075;-85
2021/01/09 09:56:10;;;;;;;16.23;9.18;;;;;;;9.65;57.93;102512.75;5084455;28;20024;-86
2021/01/09 09:58:35;;;;;;;17.48;7.22;;;;;;;10.52;57.40;102511.44;5082304;28;20040;-86
2021/01/09 10:01:01;;;;;;;14.40;8.95;;;;;;;12.12;54.56;102510.28;5050991;28;20509;-86
2021/01/09 10:03:34;;;;;;;3.83;3.20;;;;;;;13.42;50.09;102507.00;5068464;28;20039;-88
2021/01/09 10:06:01;;;;;;;8.63;4.88;;;;;;;14.00;48.67;102518.59;5084370;28;20382;-87
2021/01/09 10:08:27;;;;;;;7.10;3.40;;;;;;;13.64;44.89;102513.63;5066043;28;20034;-89
2021/01/09 10:10:52;;;;;;;4.72;3.72;;;;;;;13.00;48.71;102513.50;5086951;28;20040;-90
2021/01/09 10:13:28;;;;;;;5.07;3.38;;;;;;;12.18;50.00;102523.28;5072061;28;20040;-89
2021/01/09 10:15:56;;;;;;;53.20;36.63;;;;;;;11.53;51.83;102515.63;5089488;28;20478;-90
2021/01/09 10:18:21;;;;;;;32.55;23.55;;;;;;;11.07;52.85;102510.38;5089694;28;20032;-90
2021/01/09 10:20:47;;;;;;;36.60;28.30;;;;;;;10.69;53.49;102504.28;5086825;28;20039;-91
2021/01/09 10:23:12;;;;;;;28.23;25.33;;;;;;;10.45;54.40;102491.28;5074974;28;20036;-92
2021/01/09 10:25:38;;;;;;;20.45;18.27;;;;;;;10.41;54.70;102517.13;5092899;28;20031;-90
2021/01/09 10:28:03;;;;;;;18.15;16.30;;;;;;;10.11;54.75;102499.22;5075740;28;20028;-92
2021/01/09 10:30:29;;;;;;;11.98;9.85;;;;;;;10.05;55.12;102511.56;5088855;28;20051;-91
2021/01/09 10:32:56;;;;;;;12.00;10.98;;;;;;;9.97;55.63;102517.75;5071797;28;20032;-92
2021/01/09 10:35:24;;;;;;;19.60;17.30;;;;;;;9.87;55.88;102519.69;5071733;28;20029;-92
2021/01/09 10:37:49;;;;;;;22.00;19.75;;;;;;;9.75;56.07;102504.59;5074726;28;20032;-91
2021/01/09 10:40:15;;;;;;;15.57;13.90;;;;;;;9.79;56.34;102511.41;5056818;28;20123;-90
2021/01/09 10:42:40;;;;;;;18.55;11.50;;;;;;;9.80;56.36;102510.41;5071488;28;20028;-91
2021/01/09 10:45:06;;;;;;;10.75;9.10;;;;;;;9.77;56.58;102500.69;5070421;28;20048;-88
2021/01/09 10:47:32;;;;;;;6.95;4.95;;;;;;;9.94;56.21;102509.91;5072277;28;20028;-91
2021/01/09 10:49:57;;;;;;;3.97;3.58;;;;;;;9.93;56.29;102510.94;5072048;28;20032;-91
2021/01/09 10:52:23;;;;;;;8.48;6.85;;;;;;;9.94;56.39;102500.91;5070454;28;20081;-91
2021/01/09 10:54:49;;;;;;;8.55;7.03;;;;;;;9.99;56.12;102506.72;5054653;28;20029;-91
2021/01/09 10:57:14;;;;;;;8.10;7.00;;;;;;;9.87;56.25;102489.78;5071874;28;20033;-91
2021/01/09 10:59:40;;;;;;;12.80;8.75;;;;;;;9.83;56.26;102496.53;5051533;28;20027;-91
2021/01/09 11:02:06;;;;;;;6.22;5.72;;;;;;;9.87;56.57;102497.94;5068881;28;20036;-91
2021/01/09 11:04:31;;;;;;;7.93;5.00;;;;;;;9.86;56.81;102479.91;5051180;28;20036;-89
2021/01/09 11:07:15;;;;;;;3.90;3.60;;;;;;;10.30;57.28;102482.81;5050367;28;20024;-90
2021/01/09 11:09:41;;;;;;;8.70;3.92;;;;;;;10.97;56.84;102467.91;5075039;28;20024;-90
2021/01/09 11:12:06;;;;;;;4.22;3.03;;;;;;;11.63;55.23;102480.06;5050295;28;20115;-91
2021/01/09 11:14:32;;;;;;;5.03;3.50;;;;;;;12.25;53.74;102477.09;5069543;28;20389;-91
2021/01/09 11:17:01;;;;;;;6.53;3.38;;;;;;;12.78;51.90;102488.59;5082433;28;20047;-91
2021/01/09 11:19:27;;;;;;;7.40;2.90;;;;;;;12.94;51.17;102481.44;5085796;28;20032;-88
2021/01/09 11:22:00;;;;;;;6.35;3.55;;;;;;;12.96;50.83;102482.97;5071454;28;20055;-89
2021/01/09 11:24:27;;;;;;;5.68;3.15;;;;;;;12.98;50.73;102483.63;5073018;28;20119;-89
2021/01/09 11:26:54;;;;;;;4.88;2.40;;;;;;;12.76;50.55;102463.34;5090884;28;20030;-89
2021/01/09 11:29:20;;;;;;;8.10;3.10;;;;;;;12.64;50.71;102476.47;5058647;28;20188;-89
2021/01/09 11:31:45;;;;;;;12.55;6.57;;;;;;;12.42;51.46;102472.53;5089055;28;20146;-92
2021/01/09 11:34:11;;;;;;;8.63;4.43;;;;;;;12.35;52.88;102476.94;5074733;28;20468;-91
2021/01/09 11:36:36;;;;;;;5.18;3.35;;;;;;;12.67;52.02;102464.38;5057164;28;20047;-91